Timeline UpdatesTrip UpdatesNews PostsPvt Posts♥♥Travel TipsAdmin PostsConv PostsFollowed PostsChat RequestsBlog PostsPNR Posts

Disclaimer
Search
 
 
Sat Nov 29, 2014 12:59:09 ISTHomeTrainsΣChainsAtlasPNRForumGalleryNewsFAQTripsMembersLoginFeedback
No Recent News for this Train
Other Trains in the News **new
Latest...
.
Wed May 15, 2013 (12:03AM)
⇐ Return Journey: Train# 59439

59440/Ahmedabad - Mumbai Central Passenger

Time-Table HAS CHANGED.
Oct 14 2014 (2:56PM)
Change Departure Station:
Change Arrival Station:
Post a Train Travel TipPost a Train Travel Tip **new
Post a Comment/Question/Picture/VideoPost a Comment/Question/Picture/Video
Pantry/Catering
✕ NO Pantry Car
✕ NO Catering
RSA - Rake Sharing
59439,59440,59441 and 59442 all share rakes.
Rake/Coach Composition
Loco
BL WCAM-1/BRC WAG-5A
News    PNR    Forum    Time-Table    Availability    Fare Chart    Map    Arr/Dep History    Trips    Gallery    ΣChains    X/O    Timeline    
Travel Time: 12h 23m    51 halts    Distance: 373 km    Avg Speed: 30 km/hr
Type: Passenger
Zone: WR/Western
Departs @ 23:00 (Avg 2m late)
Platform# 2
SMTWTFS
Ahmedabad Junction/ADI 
Arrives @ 11:23 +1 night (Avg 9m late)
Platform# ???
SMTWTFS
Dahanu Road/DRD 

51 halts. 72 intermediate Stations between Ahmedabad Junction and Dahanu Road

Hide intermediate Stations  Show Old Time-Table

#TrkCodeStation NameX/OArrivesAvgDepartsAvgHaltPFDay#KmSpeedElevZoneAddress
1/==/ADIAhmedabad Junction (12)»  -23:00+2210.02451mWRAhmedabad, Gujarat
1.1/==/KKFKankariaX  23:05-23:05-  11.8 2448mWRAhmedabad, Gujarat
2/==/MANManinagar (2)X  23:10 23:08+023:12 23:10+02m213.25850mWRAhmadabad, Gujarat
3/==/VTAVatva (4)X  23:17 23:15+823:19 23:17+82m--18.02549mWRDist. Ahmedabad 382445, Gujarat
3.1/==/GERGeratpur (2)XO  23:30-23:30-  113.3 2544mWRAhmadabad, Gujarat
4/==/BJDBarejadi Nandej (3)XO  23:40 23:38+1223:41 23:40+131 2m--116.65242mWRBareja-Barejadi Rd, Gujarat
5/==/KANJKanij (3)  23:47 23:45+1423:48 23:47+191 2m--121.01239mWRBareja-Barejadi Rd, Gujarat
6/==/NEPNenpur (2)O  00:02 00:01-00:03 00:02-1m--223.85035mWRState Highway 3, Gujarat
7/==/MHDMahemdavad Kheda Road (4)X  00:09 00:07+1100:10 00:09+161 2m--228.03837mWRMahemdavad, Gujarat
8/==/GTEGothaj (2)  00:24 00:22+1300:26 00:24+162m--236.35032mWRState Highway 3, Gujarat
9/==/NDNadiad Junction (4)X  00:35+1400:39+134m--245.67337mWRNadiad, Gujarat
9.1/==/UTDUtarsanda (4)X  00:44-00:44-  251.1 7340mWRUttarsanda, Gujarat
10/==/KBRVKanjari Boriyavi Junction (4)XO  00:50 00:48+2000:52 00:50+222m--256.61839mWRKanjari, Gujarat
11/--/ANNDAnand Junction (6)  01:15+601:20+55m--264.06944mWRAnand, Gujarat
12/==/VXDVadod (3)X  01:28 01:26+1101:29 01:28+111 2m--270.94144mWRAnand District, Gujarat
13/==/ADDAdas Road (4)X  01:36 01:34+1101:37 01:36+101 2m--274.94642mWRNational Highway 8, Gujarat
14/==/VDAVasad Junction (3)X  01:44 01:42+1001:46 01:44+92m--279.66940mWRVasad, Gujarat
14.1/==/NDRNandesari (2)  01:48-01:48-  284.6 6942mWRNandesari, Gujarat
15/==/RNORanoli (2)X  01:54 01:52+1101:55 01:54+111 2m--288.72339mWRVadodara District, Gujarat
15.1/==/KRCAKarachiya YardX  01:59-01:59-  290.5 2339mWRVadodara, Gujarat
16/==/BJWBajva (3)X  02:06 02:04+1102:07 02:06+101 2m--292.51638mWRVadodara, Gujarat
16.1/==/BRGYVadodara D Cabin  02:31-02:31-  299.1 1636mWRVadodara, Gujarat
17/==/BRCVadodara Junction (7)X  02:33+402:38+45m--299.87336mWRVadodara 390005, Gujarat
17.1/==/VSVishvamitri Junction (4)  02:40-02:40-  2102.7 7330mWRVadodara, Gujarat
17.2/==/MPRMakarpura (4)X  02:45-02:45-  2108.5 7330mWRVadodara, Gujarat
17.3/==/VRMVarnama (2)  02:50-02:50-  2114.1 7328mWRVadodara, Gujarat
18/==/ITAItola (4)  02:55 02:53+1902:56 02:55+231 2m--2118.07727mWRNational Highway 8 Vadodara, Gujarat
18.1/==/KSPRKashipura Sarar (2)X  02:58-02:58-  2121.8 7726mWRGIDC Industrial Area, Gujarat
19/==/MYGMiyagam Karjan (2)  03:06 03:04+2903:08 03:06+282m--2129.67029mWRKarjan, Gujarat
19.1/==/MYGLMiyagam Karjan Junction NG  03:06-03:06-  2129.6 700mWRKarjan, Gujarat
19.2/==/LKDLakodara (4)  03:13-03:13-  2137.6 7026mWRNH 8, Gujarat
20/==/PLJPalej (4)X  03:21 03:19+3103:23 03:21+362m--2144.94529mWRPalej, Gujarat
20.1/==/VREVarediya (4)XO  03:30-03:30-  2151.5 4521mWRNH 8, Gujarat
20.2/==/NIUNabipur (3)X  03:58 03:39-03:59 03:39-  2158.2 4524mWRNabipur, Gujarat
20.3/==/CVJChavaj (2)XO  03:48-03:48-  2165.3 4520mWRBharuch, Gujarat
21/==/BHBharuch Junction (5)XO  04:15 03:55+2604:20 04:13+205 18m42170.38019mWRBharuch, Gujarat
22/==/AKVAnkleshwar Junction (4)X  04:39 04:20+3104:41 04:22+322m22179.66219mWRAnkleshwar, Gujarat
22.1/==/SNJLSanjali (2)X  04:28-04:28-  2185.7 6223mWRSanjali, Gujarat
23/==/PAOPanoli (3)X  04:50 04:32+3304:52 04:33+362 1m--2189.92329mWRPanoli, Gujarat
24/==/HATHathuran (2)X  04:58 04:43-05:00 04:44-2 1m--2193.85232mWRKosamba, Gujarat
25/==/KSBKosamba Junction (3)XO  05:05 04:49+3005:07 04:51+302m--2198.15230mWRKosamba, Gujarat
26/==/KIMKim (2)X  05:16 05:00+3205:18 05:02+452m--2205.91818mWRNH 8, Gujarat
26.1/==/KDSDKudsad (2)X  05:34 05:12-05:36 05:12-  2208.7 1818mWRNH 8, Gujarat
27/==/SYNSayan (3)XO  05:42 05:36+2505:44 05:38+302m--2215.91421mWRSayan Satellite town, Gujarat
28/==/GTXGothangam (2)XO  05:58 05:51+2306:00 05:53+222m--2218.81219mWRAmroli Sayan Rd, Gujarat
29/==/KSEKosad (2)  06:06 06:11+1106:08 06:13+112m--2222.52417mWRSurat, Gujarat
30/==/URNUtran (3)XO  06:23 06:21+906:25 06:23+142m--2225.7715mWRSurat, Gujarat
31/==/STSurat (4)XOO  06:55+607:15+720m32229.64019mWRSurat 395001, Gujarat
32/==/UDNUdhna Junction (3)X  07:21+1407:23+152m22233.64816mWRUdhna 394210, Gujarat
33/==/BHETBhestan (2)  07:31 07:29+1607:32 07:31+171 2m22238.46813mWRSurat, Gujarat
34/==/SCHSachin (3)O  07:38 07:36+1807:40 07:38+172m--2244.15711mWRKansad Road Sachin, Gujarat
35/==/MRLMaroli (3)XO  07:46 07:45+1807:48 07:47+172m--2250.73015mWRMaroli, Gujarat
36/==/NVSNavsari (3)  08:05 08:04+1108:06+151 2m--2259.25614mWRNavsari, Gujarat
36.1/==/GNSTGandhi Smriti (2)  08:09-08:09-  2262.2 5616mWRGandhi Smriti Navsari, Gujarat
36.2/==/HXRHansapore (2)X  08:11-08:11-  2263.8 5615mWRHansapore, Gujarat
37/==/VDHVedchha (3)X  08:16 08:15+1608:17+161 2m--2267.65113mWRNavsari, Gujarat
38/==/ACLAncheli (2)X  08:21-08:23-2m--2271.05720mWRNavsari, Gujarat
39/==/AMLAmalsad (3)  08:27+1708:29+172m--2274.85612mWRAmalsad, Gujarat
40/==/BIMBilimora Junction (4)O  08:35+1608:37+162m--2280.34711mWRBilimora, Gujarat
41/==/JRSJoravasan (2)  08:42-08:44-2m--2284.37615mWRJoravasan, Gujarat
42/==/DGIDungri (3)XO  08:48+1608:50+202m--2289.42120mWRNH 8, Gujarat
43/==/BLValsad (3)X  09:15+409:20+65m--2298.38015mWRValsad, Gujarat
44/==/ATULAtul (3)  09:25+1309:27+132m--2305.06022mWRValsad, Gujarat
45/==/PADPardi (3)  09:31+1409:33+132m--2308.94519mWRValsad, Gujarat
46/==/UVDUdvada (3)XO  09:41+1109:43+142m--2314.92518mWRUdvada, Gujarat
46.1/==/BAGDBagwada (2)  09:49 09:50-09:51 09:50-  2317.8 2522mWRNH8, Gujarat
47/==/VAPIVapi (3)X  10:06+510:08+102m--2324.54827mWRVapi, Gujarat
48/==/KEBKarambeli (2)XO  10:16-10:18-2m--2331.04829mWRNational Highway 8, Gujarat
49/==/BLDBhilad (3)X  10:24+1510:26+142m--2335.86933mWRBhilad, Gujarat
50/==/SJNSanjan (3)X  10:36+1710:38+172m--2347.45422mWRSanjan, Gujarat
51/==/UBRUmbargam Road (3)  10:44+1910:46+212m32352.73230mWRUmbergaon, Gujarat
51.1/==/BRRDBordi Road (2)XO  10:54-10:54-  2357.0 3217mWRBordi, Maharashtra
52/==/GVDGholvad (4)  11:03+1311:05+152m--2361.93714mWRGholvad, Maharashtra
53/==/DRDDahanu Road (5)•  11:22 11:23+911:25+123 2m--2373.05712mWRDahanu, Maharashtra
54/==/VGNVangaon (3)X  11:38+1011:40+122m--2385.36311mWRDist. Palghar, Maharashtra
55/==/BORBoisar (3)  11:49+1211:51+122m32394.73817mWRBoisar Tel.no-02525-266626, Maharashtra
55.1/==/UOIUmroli (2)X  11:59-11:59-  2399.6 388mWRBoisar, Maharashtra
56/==/PLGPalghar (3)O  12:09+212:11+22m--2406.05619mWRPalghar, Maharashtra
57/==/KLVKelve Road (3)X  12:20+912:22+82m--2414.46410mWRDist. Palghar, Maharashtra
58/==/SAHSaphale (2)X  12:28+912:30+82m22420.8588mWRDist. Palghar, Maharashtra
59/==/VTNVaitarna (2)XO  12:38+912:40+92m22428.6133mWRDist. Palghar, Maharashtra
60/==/VRVirar (8)X  13:20 13:18+013:28 13:20+98 2m42437.1286mWRDist. Palghar, Maharashtra
60.1/==/NSPNallasopara (4)XO  13:29-13:29-  2441.4 285mWRNallasopara station Rd, Maharashtra
61/==/BSRVasai Road (7)X  13:36 13:38+113:38 13:40+32m52445.6427mWRVasai 401202, Maharashtra
61.1/==/NIGNaigaon (4)  13:45-13:45-  2449.3 425mWRNaigaon West, Maharashtra
61.2/==/BYRBhayandar (6)  13:52-13:52-  2454.0 426mWRThane, Maharashtra
61.3/==/MIRAMira Road (4)  13:57-13:57-  2457.2 423mWRMira Bhayandar, Maharashtra
61.4/==/DICDahisar (4)X  14:02-14:02-  2460.7 4214mWRMumbai, Maharashtra
62/==/BVIMumbai Borivali (8)X  14:05+014:13+18m62463.03819mWRMumbai - 400092, Maharashtra
62.1/==/KILEKandivli (4)  14:17-14:17-  2465.7 3814mWRMumbai, Maharashtra
62.2/==/MDDMalad (4)  14:21-14:21-  2467.8 3818mWRMumbai-400064, Maharashtra
62.3/==/GMNGoregaon (5)  14:24-14:24-  2470.2 3815mWRMumbai - 400104, Maharashtra
62.4/==/JOSJogeshwari (4)  14:29-14:29-  2473.4 3814mWRMumbai, Maharashtra
62.5/==/ADHMumbai Andheri (9)  14:33-14:33-  2475.6 3812mWRMumbai, Maharashtra
62.6/==/VLPVille Parle (6)X  14:36-14:36-  2477.5 3811mWRMumbai, Maharashtra
62.7/==/STCSanta Cruz (6)  14:39-14:39-  2479.5 3810mWRMumbai, Maharashtra
62.8/==/KHARKhar (6)X  14:41-14:41-  2480.9 387mWRMumbai, Maharashtra
62.9/==/BDTSMumbai Bandra Terminus (5)  14:43-14:43-  2481.7 384mWRMumbai 400050, Maharashtra
62.10/==/BABandra (7)  14:44-14:44-  2482.5 386mWRMumbai, Maharashtra
62.11/==/MMMumbai Mahim Junction (6)  14:47-14:47-  2484.2 385mWRMumbai, Maharashtra
62.12/==/MRUMumbai Matunga Road (2)  14:49-14:49-  2485.4 387mWRMumbai, Maharashtra
62.13/==/DDRMumbai Dadar Western (6)  14:51-14:51-  2486.7 386mWRMumbai, Maharashtra
62.14/==/EPRMumbai Elphinstone Road (2)  14:53-14:53-  2488.3 384mWRMumbai, Maharashtra
62.15/==/PLMumbai Lower Parel (3)  14:55-14:55-  2489.8 385mWRMumbai, Maharashtra
62.16/==/MXMumbai Mahalakshmi (2)  14:58-14:58-  2491.3 383mWRMumbai, Maharashtra
63/==/BCTMumbai Central (9)  15:00+1---2492.6-3mWRMumbai 400008, Maharashtra
Scroll to Top
Scroll to Bottom


Go to Mobile site